• Join FlightAware (Why Join?)
  • Login
  • US Flag 
08:31PM EST


 

Airport Tracker/Info


-or-


 

Live Flight TrackerFlight Track Log ✈ N220MJ ✈ 27-Jun-2013 ✈ KMDW - KPTK

Flight Track Log - Related Links

Times and Time Zones

All times are in EDT time to prevent confusion due to time zone crossing. See the N220MJ flight status page for this flight to view local times or setup timezone preferences in your user account.

Time Position Orientation Groundspeed Altitude Reporting Facility
EDT Latitude Longitude Course Direction KTS MPH feet Rate Location/Type
10:42AM 41.8000 -87.6500 90° East 209 241 3,100  Level Chicago TRACON
10:44AM 41.8075 -87.5333 85° East 230 265 4,400 1,200 Climbing Chicago Center
10:45AM 41.8083 -87.4439 89° East 240 276 6,100 1,500 Climbing Chicago Center
10:46AM 41.8064 -87.3589 92° East 233 268 7,600 1,320 Climbing Chicago Center
10:47AM 41.7667 -87.2985 90° East  Level FlightAware Approximate
10:47AM 41.8044 -87.2764 92° East 225 259 8,900  Level Chicago Center
10:48AM 41.8011 -87.1922 93° East 226 260 10,000 480 Climbing Chicago Center
10:49AM 41.7989 -87.0994 92° East 245 282 10,000  Level Chicago Center
10:50AM 41.7931 -86.9750 94° East 275 316 10,000  Level Chicago Center
10:51AM 41.7894 -86.8697 93° East 282 325 10,000  Level Chicago Center
10:52AM 41.7856 -86.7661 93° East 280 322 10,000  Level Chicago Center
10:53AM 41.7814 -86.6536 93° East 284 327 10,100 480 Climbing Chicago Center
10:54AM 41.7778 -86.5550 93° East 265 305 11,000 900 Climbing Chicago Center
10:55AM 41.7989 -86.4756 70° East 239 275 12,000 1,140 Climbing Chicago Center
10:56AM 41.8447 -86.4336 34° Northeast 201 231 13,400 1,200 Climbing Chicago Center
10:57AM 41.8994 -86.3847 34° Northeast 197 227 14,600 960 Climbing Chicago Center
10:58AM 41.9444 -86.3447 33° Northeast 196 226 15,500 840 Climbing Chicago Center
10:59AM 41.9875 -86.2961 40° Northeast 203 234 16,400 660 Climbing Chicago Center
11:00AM 42.0194 -86.2250 59° Northeast 223 257 16,900 240 Climbing Chicago Center
11:01AM 42.0536 -86.1478 59° Northeast 236 272 17,000  Climbing Chicago Center
11:02AM 42.0931 -86.0644 57° Northeast 257 296 17,000  Level Chicago Center
11:03AM 42.1319 -85.9817 58° Northeast 262 302 17,000  Level Chicago Center
11:04AM 42.1756 -85.8889 58° Northeast 261 300 17,000  Level Chicago Center
11:05AM 42.2142 -85.8047 58° Northeast 264 304 17,000  Level Chicago Center
11:07AM 42.2533 -85.7203 58° Northeast 267 307 17,000  Level Chicago Center
11:08AM 42.3006 -85.6167 58° Northeast 271 312 17,000  Level Chicago Center
11:09AM 42.3383 -85.5322 59° Northeast 266 306 17,000  Level Chicago Center
11:10AM 42.3778 -85.4500 57° Northeast 263 303 17,000  Level Chicago Center
11:11AM 42.4153 -85.3644 59° Northeast 265 305 17,000  Level Chicago Center
11:12AM 42.4542 -85.2803 58° Northeast 264 304 17,000  Level Chicago Center
11:13AM 42.4992 -85.1811 58° Northeast 261 300 17,100  Climbing Chicago Center
11:14AM 42.5381 -85.0964 58° Northeast 263 303 17,000 -60 Descending Chicago Center
11:15AM 42.5753 -85.0144 58° Northeast 259 298 17,000  Level Chicago Center
11:16AM 42.6131 -84.9308 58° Northeast 260 299 17,000 -120 Level Chicago Center
11:17AM 42.6506 -84.8478 58° Northeast 259 298 16,800 -660 Descending Chicago Center
11:18AM 42.6903 -84.7586 59° Northeast 272 313 15,700 -1,200 Descending Chicago Center
11:19AM 42.7222 -84.6311 71° East 298 343 14,400 -1,260 Descending Chicago Center
11:20AM 42.7153 -84.5150 95° East 307 353 13,100 -1,320 Descending Chicago Center
11:21AM 42.7142 -84.4003 91° East 305 351 11,700 -1,380 Descending Chicago Center
11:22AM 42.7128 -84.2886 91° East 300 345 10,300 -1,320 Descending Chicago Center
11:23AM 42.7103 -84.1833 92° East 285 328 9,100 -1,200 Descending Cleveland Center
11:24AM 42.7094 -84.0786 91° East 272 313 8,000 -1,200 Descending Cleveland Center
11:25AM 42.7122 -83.9800 88° East 267 307 6,800 -1,260 Descending Cleveland Center
11:26AM 42.7172 -83.8869 86° East 238 274 5,500 -780 Descending Cleveland Center
11:27AM 42.7222 -83.7769 86° East 219 252 5,100 -180 Descending Cleveland Center
11:28AM 42.7267 -83.6894 86° East 228 262 5,100  Level Cleveland Center
11:29AM 42.7333 -83.6022 84° East 225 259 5,100 -240 Level Cleveland Center
11:30AM 42.7372 -83.5261 86° East 218 251 4,700 -960 Descending Cleveland Center
11:31AM 42.7436 -83.4444 84° East 216 249 3,300 -840 Descending Cleveland Center
11:32AM 42.7453 -83.3681 88° East 187 215 3,100 -120 Descending Cleveland Center
11:33AM 42.7492 -83.3003 86° East 197 227 3,100  Level Cleveland Center
11:34AM 42.7342 -83.2319 107° East 201 231 3,100  Level Cleveland Center
11:35AM 42.6839 -83.2383 185° South 185 213 3,100 -180 Level Cleveland Center
11:36AM 42.6700 -83.2997 253° West 180 207 2,800 -600 Descending Cleveland Center
11:37AM 42.6642 -83.3617 263° West 145 167 1,900 -900 Descending Cleveland Center
11:39AM 42.6500 -83.4167 226° Southwest  Level FlightAware Approximate
11:46AM 42.6656 -83.4205 226° Southwest  Level Estimated
11:47AM 42.6656 -83.4205 226° Southwest  Level Estimated